createdAt,value
2023-02-11T00:00:39.165Z,0.00
2023-02-11T00:01:39.134Z,0.00
2023-02-11T00:02:39.121Z,0.00
2023-02-11T00:03:39.187Z,0.00
2023-02-11T00:04:39.098Z,0.00
2023-02-11T00:05:39.121Z,0.00
2023-02-11T00:06:39.083Z,0.00
2023-02-11T00:07:39.066Z,0.00
2023-02-11T00:08:39.058Z,0.00
2023-02-11T00:09:39.043Z,0.00
2023-02-11T00:10:39.046Z,0.00
2023-02-11T00:11:39.020Z,0.00
2023-02-11T00:12:39.007Z,0.00
2023-02-11T00:13:39.004Z,0.00
2023-02-11T00:14:39.012Z,0.00
2023-02-11T00:15:39.003Z,0.00
2023-02-11T00:16:39.129Z,0.00
2023-02-11T00:17:38.960Z,0.00
2023-02-11T00:18:38.943Z,0.00
2023-02-11T00:19:38.960Z,0.00
2023-02-11T00:20:38.920Z,0.00
2023-02-11T00:21:38.915Z,0.00
2023-02-11T00:22:38.901Z,0.00
2023-02-11T00:23:38.890Z,0.00
2023-02-11T00:24:38.900Z,0.00
2023-02-11T00:25:38.906Z,0.00
2023-02-11T00:26:38.855Z,0.00
2023-02-11T00:27:38.856Z,0.00
2023-02-11T00:28:38.840Z,0.00
2023-02-11T00:29:38.854Z,0.00
2023-02-11T00:30:38.976Z,0.00
2023-02-11T00:31:39.000Z,0.00
2023-02-11T00:32:38.812Z,0.00
2023-02-11T00:33:38.787Z,0.00
2023-02-11T00:34:38.789Z,0.00
2023-02-11T00:35:38.822Z,0.00
2023-02-11T00:36:38.751Z,0.00
2023-02-11T00:37:38.736Z,0.00
2023-02-11T00:38:38.740Z,0.00
2023-02-11T00:39:38.724Z,0.00
2023-02-11T00:40:38.724Z,0.00
2023-02-11T00:41:38.699Z,0.00
2023-02-11T00:42:38.688Z,0.00
2023-02-11T00:43:38.672Z,0.00
2023-02-11T00:44:38.680Z,0.00
2023-02-11T00:45:38.651Z,0.00
2023-02-11T00:46:38.682Z,0.00
2023-02-11T00:47:38.646Z,0.00
2023-02-11T00:48:38.644Z,0.00
2023-02-11T00:49:38.637Z,0.00
2023-02-11T00:50:38.597Z,0.00
2023-02-11T00:51:38.585Z,0.00
2023-02-11T00:52:38.581Z,0.00
2023-02-11T00:53:38.572Z,0.00
2023-02-11T00:54:38.567Z,0.00
2023-02-11T00:55:38.542Z,0.00
2023-02-11T00:56:38.525Z,0.00
2023-02-11T00:57:38.522Z,0.00
2023-02-11T00:58:38.526Z,0.00
2023-02-11T00:59:38.517Z,0.00
2023-02-11T01:00:38.486Z,0.00
2023-02-11T01:01:38.530Z,0.00
2023-02-11T01:02:38.465Z,0.00
2023-02-11T01:03:38.462Z,0.00
2023-02-11T01:04:38.488Z,0.00
2023-02-11T01:05:38.550Z,0.00
2023-02-11T01:06:38.423Z,0.00
2023-02-11T01:07:38.412Z,0.00
2023-02-11T01:08:38.415Z,0.00
2023-02-11T01:09:38.422Z,0.00
2023-02-11T01:10:38.383Z,0.00
2023-02-11T01:11:38.377Z,0.00
2023-02-11T01:12:38.370Z,0.00
2023-02-11T01:13:38.352Z,0.00
2023-02-11T01:14:38.368Z,0.00
2023-02-11T01:15:38.406Z,0.00
2023-02-11T01:16:38.308Z,0.00
2023-02-11T01:17:38.302Z,0.00
2023-02-11T01:18:38.312Z,0.00
2023-02-11T01:19:38.316Z,0.00
2023-02-11T01:20:38.292Z,0.00
2023-02-11T01:21:38.262Z,0.00
2023-02-11T01:22:38.249Z,0.00
2023-02-11T01:23:38.248Z,0.00
2023-02-11T01:24:38.260Z,0.00
2023-02-11T01:25:38.221Z,0.00
2023-02-11T01:26:38.208Z,0.00
2023-02-11T01:27:38.196Z,0.00
2023-02-11T01:28:38.231Z,0.00
2023-02-11T01:29:38.203Z,0.00
2023-02-11T01:30:38.193Z,0.00
2023-02-11T01:31:38.269Z,0.00
2023-02-11T01:32:38.138Z,0.00
2023-02-11T01:33:38.140Z,0.00
2023-02-11T01:34:38.124Z,0.00
2023-02-11T01:35:38.140Z,0.00
2023-02-11T01:36:38.137Z,0.00
2023-02-11T01:37:38.091Z,0.00
2023-02-11T01:38:38.092Z,0.00
2023-02-11T01:39:38.067Z,0.00
2023-02-11T01:40:38.081Z,0.00
2023-02-11T01:41:38.054Z,0.00
2023-02-11T01:42:38.035Z,0.00
2023-02-11T01:43:38.054Z,0.00
2023-02-11T01:44:38.027Z,0.00
2023-02-11T01:45:38.007Z,0.00
2023-02-11T01:46:38.048Z,0.00
2023-02-11T01:47:37.992Z,0.00
2023-02-11T01:48:37.999Z,0.00
2023-02-11T01:49:38.061Z,0.00
2023-02-11T01:50:37.951Z,0.00
2023-02-11T01:51:37.961Z,0.00
2023-02-11T01:52:37.957Z,0.00
2023-02-11T01:53:37.961Z,0.00
2023-02-11T01:54:37.910Z,0.00
2023-02-11T01:55:37.898Z,0.00
2023-02-11T01:56:37.923Z,0.00
2023-02-11T01:57:37.874Z,0.00
2023-02-11T01:58:37.866Z,0.00
2023-02-11T01:59:37.852Z,0.00
2023-02-11T02:00:37.836Z,0.00
2023-02-11T02:01:37.886Z,0.00
2023-02-11T02:02:37.824Z,0.00
2023-02-11T02:03:37.893Z,0.00
2023-02-11T02:04:37.807Z,0.00
2023-02-11T02:05:37.795Z,0.00
2023-02-11T02:06:37.804Z,0.00
2023-02-11T02:07:37.769Z,0.00
2023-02-11T02:08:37.775Z,0.00
2023-02-11T02:09:37.767Z,0.00
2023-02-11T02:10:37.734Z,0.00
2023-02-11T02:11:37.733Z,0.00
2023-02-11T02:12:37.733Z,0.00
2023-02-11T02:13:37.696Z,0.00
2023-02-11T02:14:37.728Z,0.00
2023-02-11T02:15:37.678Z,0.00
2023-02-11T02:16:37.800Z,0.00
2023-02-11T02:17:37.674Z,0.00
2023-02-11T02:18:37.648Z,0.00
2023-02-11T02:19:37.631Z,0.00
2023-02-11T02:20:37.625Z,0.00
2023-02-11T02:21:37.615Z,0.00
2023-02-11T02:22:37.631Z,0.00
2023-02-11T02:23:37.609Z,0.00
2023-02-11T02:24:37.603Z,0.00
2023-02-11T02:25:37.570Z,0.00
2023-02-11T02:26:37.569Z,0.00
2023-02-11T02:27:37.579Z,0.00
2023-02-11T02:28:37.567Z,0.00
2023-02-11T02:29:37.529Z,0.00
2023-02-11T02:30:37.575Z,0.00
2023-02-11T02:31:37.549Z,0.00
2023-02-11T02:32:37.518Z,0.00
2023-02-11T02:33:37.482Z,0.00
2023-02-11T02:34:37.470Z,0.00
2023-02-11T02:35:37.503Z,0.00
2023-02-11T02:36:37.456Z,0.00
2023-02-11T02:37:37.474Z,0.00
2023-02-11T02:38:37.431Z,0.00
2023-02-11T02:39:37.441Z,0.00
2023-02-11T02:40:37.467Z,0.00
2023-02-11T02:41:37.391Z,0.00
2023-02-11T02:42:37.412Z,0.00
2023-02-11T02:43:37.371Z,0.00
2023-02-11T02:44:37.362Z,0.00
2023-02-11T02:45:37.364Z,0.00
2023-02-11T02:46:37.403Z,0.00
2023-02-11T02:47:37.353Z,0.00
2023-02-11T02:48:37.357Z,0.00
2023-02-11T02:49:37.308Z,0.00
2023-02-11T02:50:37.330Z,0.00
2023-02-11T02:51:37.302Z,0.00
2023-02-11T02:52:37.305Z,0.00
2023-02-11T02:53:37.281Z,0.00
2023-02-11T02:54:37.260Z,0.00
2023-02-11T02:55:37.286Z,0.00
2023-02-11T02:56:37.356Z,0.00
2023-02-11T02:57:37.227Z,0.00
2023-02-11T02:58:37.220Z,0.00
2023-02-11T02:59:37.206Z,0.00
2023-02-11T03:00:37.247Z,0.00
2023-02-11T03:01:37.187Z,0.00
2023-02-11T03:02:37.185Z,0.00
2023-02-11T03:03:37.197Z,0.00
2023-02-11T03:04:37.152Z,0.00
2023-02-11T03:05:37.165Z,0.00
2023-02-11T03:06:37.134Z,0.00
2023-02-11T03:07:37.117Z,0.00
2023-02-11T03:08:37.109Z,0.00
2023-02-11T03:09:37.097Z,0.00
2023-02-11T03:10:37.125Z,0.00
2023-02-11T03:11:37.076Z,0.00
2023-02-11T03:12:37.089Z,0.00
2023-02-11T03:13:37.052Z,0.00
2023-02-11T03:14:37.049Z,0.00
2023-02-11T03:15:37.049Z,0.00
2023-02-11T03:16:37.092Z,0.00
2023-02-11T03:17:37.013Z,0.00
2023-02-11T03:18:37.001Z,0.00
2023-02-11T03:19:36.985Z,0.00
2023-02-11T03:20:37.031Z,0.00
2023-02-11T03:21:36.959Z,0.00
2023-02-11T03:22:36.982Z,0.00
2023-02-11T03:23:36.945Z,0.00
2023-02-11T03:24:36.953Z,0.00
2023-02-11T03:25:36.952Z,0.00
2023-02-11T03:26:36.916Z,0.00
2023-02-11T03:27:36.910Z,0.00
2023-02-11T03:28:36.974Z,0.00
2023-02-11T03:29:36.878Z,0.00
2023-02-11T03:30:36.870Z,0.00
2023-02-11T03:31:37.041Z,0.00
2023-02-11T03:32:36.854Z,0.00
2023-02-11T03:33:36.854Z,0.00
2023-02-11T03:34:36.832Z,0.00
2023-02-11T03:35:36.836Z,0.00
2023-02-11T03:36:36.802Z,0.00
2023-02-11T03:37:36.789Z,0.00
2023-02-11T03:38:36.782Z,0.00
2023-02-11T03:39:36.791Z,0.00
2023-02-11T03:40:36.763Z,0.00
2023-02-11T03:41:36.744Z,0.00
2023-02-11T03:42:36.740Z,0.00
2023-02-11T03:43:36.724Z,0.00
2023-02-11T03:44:36.760Z,0.00
2023-02-11T03:45:36.746Z,0.00
2023-02-11T03:46:36.693Z,0.00
2023-02-11T03:47:36.678Z,0.00
2023-02-11T03:48:36.670Z,0.00
2023-02-11T03:49:36.681Z,0.00
2023-02-11T03:50:36.651Z,0.00
2023-02-11T03:51:36.633Z,0.00
2023-02-11T03:52:36.634Z,0.00
2023-02-11T03:53:36.617Z,0.00
2023-02-11T03:54:36.631Z,0.00
2023-02-11T03:55:36.596Z,0.00
2023-02-11T03:56:36.586Z,0.00
2023-02-11T03:57:36.580Z,0.00
2023-02-11T03:58:36.556Z,0.00
2023-02-11T03:59:36.575Z,0.00
2023-02-11T04:00:36.571Z,0.00
2023-02-11T04:01:36.537Z,0.00
2023-02-11T04:02:36.525Z,0.00
2023-02-11T04:03:36.609Z,0.00
2023-02-11T04:04:36.489Z,0.00
2023-02-11T04:05:36.503Z,0.00
2023-02-11T04:06:36.467Z,0.00
2023-02-11T04:07:36.456Z,0.00
2023-02-11T04:08:36.451Z,0.00
2023-02-11T04:09:36.447Z,0.00
2023-02-11T04:10:36.457Z,0.00
2023-02-11T04:11:36.407Z,0.00
2023-02-11T04:12:36.402Z,0.00
2023-02-11T04:13:36.398Z,0.00
2023-02-11T04:14:36.390Z,0.00
2023-02-11T04:15:36.386Z,0.00
2023-02-11T04:16:36.497Z,0.00
2023-02-11T04:17:36.373Z,0.00
2023-02-11T04:18:36.358Z,0.00
2023-02-11T04:19:36.326Z,0.00
2023-02-11T04:20:36.324Z,0.00
2023-02-11T04:21:36.312Z,0.00
2023-02-11T04:22:36.316Z,0.00
2023-02-11T04:23:36.280Z,0.00
2023-02-11T04:24:36.286Z,0.00
2023-02-11T04:25:36.259Z,0.00
2023-02-11T04:26:36.274Z,0.00
2023-02-11T04:27:36.260Z,0.00
2023-02-11T04:28:36.343Z,0.00
2023-02-11T04:29:36.209Z,0.00
2023-02-11T04:30:36.206Z,0.00
2023-02-11T04:31:36.298Z,0.00
2023-02-11T04:32:36.233Z,0.00
2023-02-11T04:33:36.167Z,0.00
2023-02-11T04:34:36.160Z,0.00
2023-02-11T04:35:36.155Z,0.00
2023-02-11T04:36:36.173Z,0.00
2023-02-11T04:37:36.125Z,0.00
2023-02-11T04:38:36.118Z,0.00
2023-02-11T04:39:36.101Z,0.00
2023-02-11T04:40:36.094Z,0.00
2023-02-11T04:41:36.078Z,0.00
2023-02-11T04:42:36.101Z,0.00
2023-02-11T04:43:36.061Z,0.00
2023-02-11T04:44:36.077Z,0.00
2023-02-11T04:45:36.180Z,0.00
2023-02-11T04:46:36.023Z,0.00
2023-02-11T04:47:36.041Z,0.00
2023-02-11T04:48:36.023Z,0.00
2023-02-11T04:49:35.990Z,0.00
2023-02-11T04:50:35.996Z,0.00
2023-02-11T04:51:35.968Z,0.00
2023-02-11T04:52:35.994Z,0.00
2023-02-11T04:53:35.961Z,0.00
2023-02-11T04:54:35.940Z,0.00
2023-02-11T04:55:35.936Z,0.00
2023-02-11T04:56:35.923Z,0.00
2023-02-11T04:57:35.923Z,0.00
2023-02-11T04:58:35.892Z,0.00
2023-02-11T04:59:35.891Z,0.00
2023-02-11T05:00:35.906Z,0.00
2023-02-11T05:01:35.890Z,0.00
2023-02-11T05:02:35.892Z,0.00
2023-02-11T05:03:35.853Z,0.00
2023-02-11T05:04:35.857Z,0.00
2023-02-11T05:05:35.818Z,0.00
2023-02-11T05:06:35.813Z,0.00
2023-02-11T05:07:35.818Z,0.00
2023-02-11T05:08:35.788Z,0.00
2023-02-11T05:09:35.773Z,0.00
2023-02-11T05:10:35.766Z,0.00
2023-02-11T05:11:35.758Z,0.00
2023-02-11T05:12:35.790Z,0.00
2023-02-11T05:13:35.734Z,0.00
2023-02-11T05:14:35.727Z,0.00
2023-02-11T05:15:35.745Z,0.00
2023-02-11T05:16:35.822Z,0.00
2023-02-11T05:17:35.716Z,0.00
2023-02-11T05:18:35.683Z,0.00
2023-02-11T05:19:35.666Z,0.00
2023-02-11T05:20:35.675Z,0.00
2023-02-11T05:21:35.646Z,0.00
2023-02-11T05:22:35.661Z,0.00
2023-02-11T05:23:35.629Z,0.00
2023-02-11T05:24:35.613Z,0.00
2023-02-11T05:25:35.601Z,0.00
2023-02-11T05:26:35.615Z,0.00
2023-02-11T05:27:35.625Z,0.00
2023-02-11T05:28:35.684Z,0.00
2023-02-11T05:29:35.557Z,0.00
2023-02-11T05:30:35.629Z,0.00
2023-02-11T05:31:35.549Z,0.00
2023-02-11T05:32:35.528Z,0.00
2023-02-11T05:33:35.541Z,0.00
2023-02-11T05:34:35.543Z,0.00
2023-02-11T05:35:35.527Z,0.00
2023-02-11T05:36:35.516Z,0.00
2023-02-11T05:37:35.566Z,0.00
2023-02-11T05:38:35.466Z,0.00
2023-02-11T05:39:35.478Z,0.00
2023-02-11T05:40:35.446Z,0.00
2023-02-11T05:41:35.430Z,0.00
2023-02-11T05:42:35.417Z,0.00
2023-02-11T05:43:35.449Z,0.00
2023-02-11T05:44:35.424Z,0.00
2023-02-11T05:45:35.387Z,0.00
2023-02-11T05:46:35.467Z,0.00
2023-02-11T05:47:35.401Z,0.00
2023-02-11T05:48:35.358Z,0.00
2023-02-11T05:49:35.351Z,0.00
2023-02-11T05:50:35.352Z,0.00
2023-02-11T05:51:35.328Z,0.00
2023-02-11T05:52:35.368Z,0.00
2023-02-11T05:53:35.312Z,0.00
2023-02-11T05:54:35.294Z,0.00
2023-02-11T05:55:35.311Z,0.00
2023-02-11T05:56:35.276Z,0.00
2023-02-11T05:57:35.259Z,0.00
2023-02-11T05:58:35.255Z,0.00
2023-02-11T05:59:35.240Z,0.00
2023-02-11T06:00:35.269Z,0.00
2023-02-11T06:01:35.223Z,0.00
2023-02-11T06:02:35.249Z,0.00
2023-02-11T06:03:35.212Z,0.00
2023-02-11T06:04:35.216Z,0.00
2023-02-11T06:05:35.207Z,0.00
2023-02-11T06:06:35.165Z,0.00
2023-02-11T06:07:35.161Z,0.00
2023-02-11T06:08:37.025Z,0.00
2023-02-11T06:09:35.160Z,0.00
2023-02-11T06:10:35.143Z,0.00
2023-02-11T06:11:35.110Z,0.00
2023-02-11T06:12:35.110Z,0.00
2023-02-11T06:13:35.088Z,0.00
2023-02-11T06:14:35.106Z,0.00
2023-02-11T06:15:35.104Z,0.00
2023-02-11T06:16:35.058Z,0.00
2023-02-11T06:17:35.049Z,0.00
2023-02-11T06:18:35.043Z,0.00
2023-02-11T06:19:35.025Z,0.00
2023-02-11T06:20:35.061Z,0.00
2023-02-11T06:21:43.550Z,0.00
2023-02-11T06:22:36.002Z,0.00
2023-02-11T06:23:34.995Z,0.00
2023-02-11T06:24:58.552Z,0.00
2023-02-11T06:25:35.988Z,4.00
2023-02-11T06:26:34.966Z,4.00
2023-02-11T06:27:34.946Z,0.00
2023-02-11T06:28:34.974Z,4.00
2023-02-11T06:29:34.936Z,4.00
2023-02-11T06:30:34.928Z,4.00
2023-02-11T06:31:35.041Z,4.00
2023-02-11T06:32:43.865Z,8.00
2023-02-11T06:33:35.890Z,8.00
2023-02-11T06:34:34.865Z,4.00
2023-02-11T06:35:34.885Z,8.00
2023-02-11T06:36:34.854Z,8.00
2023-02-11T06:37:34.869Z,8.00
2023-02-11T06:38:34.834Z,12.00
2023-02-11T06:39:34.820Z,8.00
2023-02-11T06:40:34.825Z,8.00
2023-02-11T06:41:34.808Z,12.00
2023-02-11T06:42:34.804Z,12.00
2023-02-11T06:43:34.775Z,12.00
2023-02-11T06:44:34.758Z,12.00
2023-02-11T06:45:34.749Z,12.00
2023-02-11T06:46:34.799Z,8.00
2023-02-11T06:47:34.772Z,16.00
2023-02-11T06:48:34.726Z,12.00
2023-02-11T06:49:34.735Z,16.00
2023-02-11T06:50:34.711Z,16.00
2023-02-11T06:51:34.696Z,16.00
2023-02-11T06:52:34.696Z,20.00
2023-02-11T06:53:34.671Z,20.00
2023-02-11T06:54:34.655Z,16.00
2023-02-11T06:55:34.645Z,24.00
2023-02-11T06:56:34.677Z,20.00
2023-02-11T06:57:34.639Z,24.00
2023-02-11T06:58:34.613Z,24.00
2023-02-11T06:59:34.602Z,24.00
2023-02-11T07:00:34.612Z,32.00
2023-02-11T07:01:34.650Z,28.00
2023-02-11T07:02:34.716Z,28.00
2023-02-11T07:03:34.564Z,28.00
2023-02-11T07:04:34.548Z,28.00
2023-02-11T07:05:34.533Z,32.00
2023-02-11T07:06:34.552Z,36.00
2023-02-11T07:07:34.552Z,40.00
2023-02-11T07:08:34.509Z,40.00
2023-02-11T07:09:34.492Z,40.00
2023-02-11T07:10:34.485Z,44.00
2023-02-11T07:11:34.520Z,44.00
2023-02-11T07:12:34.487Z,48.00
2023-02-11T07:13:34.454Z,44.00
2023-02-11T07:14:34.443Z,60.00
2023-02-11T07:15:34.434Z,48.00
2023-02-11T07:16:34.521Z,56.00
2023-02-11T07:17:34.407Z,64.00
2023-02-11T07:18:34.440Z,60.00
2023-02-11T07:19:34.391Z,60.00
2023-02-11T07:20:34.387Z,60.00
2023-02-11T07:21:34.401Z,64.00
2023-02-11T07:22:34.356Z,72.00
2023-02-11T07:23:34.348Z,68.00
2023-02-11T07:24:34.338Z,72.00
2023-02-11T07:25:34.334Z,72.00
2023-02-11T07:26:34.336Z,108.00
2023-02-11T07:27:34.305Z,112.00
2023-02-11T07:28:34.431Z,96.00
2023-02-11T07:29:34.279Z,136.00
2023-02-11T07:30:34.270Z,124.00
2023-02-11T07:31:34.394Z,112.00
2023-02-11T07:32:34.253Z,124.00
2023-02-11T07:33:34.237Z,152.00
2023-02-11T07:34:34.316Z,116.00
2023-02-11T07:35:34.217Z,132.00
2023-02-11T07:36:34.251Z,124.00
2023-02-11T07:37:34.196Z,120.00
2023-02-11T07:38:34.236Z,124.00
2023-02-11T07:39:34.184Z,112.00
2023-02-11T07:40:34.168Z,124.00
2023-02-11T07:41:37.360Z,100.00
2023-02-11T07:42:34.161Z,88.00
2023-02-11T07:43:34.144Z,108.00
2023-02-11T07:44:34.147Z,104.00
2023-02-11T07:45:34.115Z,96.00
2023-02-11T07:46:34.148Z,88.00
2023-02-11T07:47:34.125Z,88.00
2023-02-11T07:48:34.111Z,84.00
2023-02-11T07:49:34.064Z,84.00
2023-02-11T07:50:34.049Z,76.00
2023-02-11T07:51:34.051Z,76.00
2023-02-11T07:52:34.035Z,64.00
2023-02-11T07:53:34.031Z,56.00
2023-02-11T07:54:34.032Z,72.00
2023-02-11T07:55:34.042Z,72.00
2023-02-11T07:56:34.003Z,64.00
2023-02-11T07:57:33.984Z,52.00
2023-02-11T07:58:33.964Z,60.00
2023-02-11T07:59:33.984Z,60.00
2023-02-11T08:00:34.029Z,52.00
2023-02-11T08:01:33.967Z,56.00
2023-02-11T08:02:33.986Z,60.00
2023-02-11T08:03:33.976Z,72.00
2023-02-11T08:04:33.904Z,64.00
2023-02-11T08:05:33.894Z,60.00
2023-02-11T08:06:33.908Z,60.00
2023-02-11T08:07:33.871Z,64.00
2023-02-11T08:08:33.901Z,68.00
2023-02-11T08:09:34.644Z,68.00
2023-02-11T08:10:33.837Z,76.00
2023-02-11T08:11:33.835Z,88.00
2023-02-11T08:12:33.818Z,92.00
2023-02-11T08:13:33.832Z,80.00
2023-02-11T08:14:33.800Z,88.00
2023-02-11T08:15:33.781Z,96.00
2023-02-11T08:16:34.007Z,108.00
2023-02-11T08:17:33.769Z,108.00
2023-02-11T08:18:33.770Z,116.00
2023-02-11T08:19:35.242Z,164.00
2023-02-11T08:20:33.725Z,196.00
2023-02-11T08:21:33.715Z,148.00
2023-02-11T08:22:33.703Z,132.00
2023-02-11T08:23:33.699Z,92.00
2023-02-11T08:24:33.702Z,92.00
2023-02-11T08:25:33.703Z,88.00
2023-02-11T08:26:33.661Z,88.00
2023-02-11T08:27:33.653Z,72.00
2023-02-11T08:28:33.668Z,92.00
2023-02-11T08:29:33.637Z,80.00
2023-02-11T08:30:33.641Z,80.00
2023-02-11T08:31:33.761Z,88.00
2023-02-11T08:32:33.611Z,76.00
2023-02-11T08:33:33.584Z,60.00
2023-02-11T08:34:33.602Z,56.00
2023-02-11T08:35:33.564Z,64.00
2023-02-11T08:36:33.552Z,60.00
2023-02-11T08:37:33.540Z,60.00
2023-02-11T08:38:33.525Z,88.00
2023-02-11T08:39:33.517Z,112.00
2023-02-11T08:40:33.523Z,120.00
2023-02-11T08:41:33.526Z,92.00
2023-02-11T08:42:33.483Z,88.00
2023-02-11T08:43:33.532Z,64.00
2023-02-11T08:44:33.457Z,60.00
2023-02-11T08:45:33.501Z,84.00
2023-02-11T08:46:33.554Z,80.00
2023-02-11T08:47:33.437Z,72.00
2023-02-11T08:48:33.438Z,60.00
2023-02-11T08:49:33.404Z,68.00
2023-02-11T08:50:33.452Z,80.00
2023-02-11T08:51:33.416Z,80.00
2023-02-11T08:52:33.367Z,104.00
2023-02-11T08:53:33.364Z,124.00
2023-02-11T08:54:33.344Z,128.00
2023-02-11T08:55:33.343Z,128.00
2023-02-11T08:56:33.357Z,120.00
2023-02-11T08:57:33.325Z,100.00
2023-02-11T08:58:33.307Z,108.00
2023-02-11T08:59:33.321Z,116.00
2023-02-11T09:00:33.284Z,128.00
2023-02-11T09:01:33.389Z,104.00
2023-02-11T09:02:33.280Z,124.00
2023-02-11T09:03:33.258Z,116.00
2023-02-11T09:04:33.323Z,144.00
2023-02-11T09:05:33.228Z,116.00
2023-02-11T09:06:33.246Z,84.00
2023-02-11T09:07:33.212Z,88.00
2023-02-11T09:08:33.191Z,84.00
2023-02-11T09:09:33.193Z,84.00
2023-02-11T09:10:33.182Z,84.00
2023-02-11T09:11:33.195Z,88.00
2023-02-11T09:12:33.173Z,68.00
2023-02-11T09:13:33.141Z,68.00
2023-02-11T09:14:33.126Z,72.00
2023-02-11T09:15:33.125Z,72.00
2023-02-11T09:16:33.132Z,92.00
2023-02-11T09:17:33.118Z,88.00
2023-02-11T09:18:33.086Z,80.00
2023-02-11T09:19:33.079Z,80.00
2023-02-11T09:20:33.090Z,92.00
2023-02-11T09:21:33.080Z,104.00
2023-02-11T09:22:33.045Z,104.00
2023-02-11T09:23:33.032Z,108.00
2023-02-11T09:24:33.025Z,116.00
2023-02-11T09:25:33.021Z,116.00
2023-02-11T09:26:33.023Z,112.00
2023-02-11T09:27:33.019Z,100.00
2023-02-11T09:28:33.005Z,108.00
2023-02-11T09:29:32.976Z,96.00
2023-02-11T09:30:33.040Z,100.00
2023-02-11T09:31:33.046Z,92.00
2023-02-11T09:32:32.954Z,88.00
2023-02-11T09:33:32.923Z,96.00
2023-02-11T09:34:32.915Z,88.00
2023-02-11T09:35:32.906Z,100.00
2023-02-11T09:36:32.909Z,88.00
2023-02-11T09:37:34.621Z,112.00
2023-02-11T09:38:32.868Z,104.00
2023-02-11T09:39:32.861Z,124.00
2023-02-11T09:40:32.851Z,140.00
2023-02-11T09:41:32.867Z,156.00
2023-02-11T09:42:32.838Z,188.00
2023-02-11T09:43:32.818Z,196.00
2023-02-11T09:44:32.825Z,188.00
2023-02-11T09:45:32.795Z,176.00
2023-02-11T09:46:32.862Z,144.00
2023-02-11T09:47:32.803Z,120.00
2023-02-11T09:48:32.762Z,132.00
2023-02-11T09:49:32.782Z,176.00
2023-02-11T09:50:32.750Z,132.00
2023-02-11T09:51:32.757Z,124.00
2023-02-11T09:52:32.743Z,144.00
2023-02-11T09:53:32.722Z,152.00
2023-02-11T09:54:32.736Z,160.00
2023-02-11T09:55:32.689Z,164.00
2023-02-11T09:56:32.700Z,160.00
2023-02-11T09:57:32.671Z,132.00
2023-02-11T09:58:32.654Z,116.00
2023-02-11T09:59:32.646Z,112.00
2023-02-11T10:00:32.657Z,100.00
2023-02-11T10:01:32.701Z,88.00
2023-02-11T10:02:32.627Z,112.00
2023-02-11T10:03:32.601Z,116.00
2023-02-11T10:04:32.631Z,120.00
2023-02-11T10:05:32.583Z,112.00
2023-02-11T10:06:32.615Z,136.00
2023-02-11T10:07:32.574Z,148.00
2023-02-11T10:08:32.603Z,144.00
2023-02-11T10:09:32.538Z,140.00
2023-02-11T10:10:32.517Z,140.00
2023-02-11T10:11:32.705Z,140.00
2023-02-11T10:12:33.301Z,148.00
2023-02-11T10:13:32.512Z,120.00
2023-02-11T10:14:32.483Z,136.00
2023-02-11T10:15:32.502Z,140.00
2023-02-11T10:16:32.486Z,112.00
2023-02-11T10:17:32.453Z,140.00
2023-02-11T10:18:32.445Z,128.00
2023-02-11T10:19:32.434Z,108.00
2023-02-11T10:20:32.424Z,112.00
2023-02-11T10:21:32.428Z,96.00
2023-02-11T10:22:32.403Z,104.00
2023-02-11T10:23:32.390Z,92.00
2023-02-11T10:24:32.427Z,136.00
2023-02-11T10:25:32.364Z,124.00
2023-02-11T10:26:32.376Z,132.00
2023-02-11T10:27:32.361Z,108.00
2023-02-11T10:28:32.394Z,116.00
2023-02-11T10:29:32.323Z,128.00
2023-02-11T10:30:32.460Z,144.00
2023-02-11T10:31:32.413Z,144.00
2023-02-11T10:32:32.291Z,148.00
2023-02-11T10:33:32.278Z,172.00
2023-02-11T10:34:32.267Z,132.00
2023-02-11T10:35:32.260Z,164.00
2023-02-11T10:36:32.253Z,132.00
2023-02-11T10:37:32.269Z,132.00
2023-02-11T10:38:32.225Z,108.00
2023-02-11T10:39:32.216Z,128.00
2023-02-11T10:40:32.224Z,120.00
2023-02-11T10:41:32.208Z,128.00
2023-02-11T10:42:32.211Z,156.00
2023-02-11T10:43:32.168Z,144.00
2023-02-11T10:44:32.161Z,172.00
2023-02-11T10:45:32.151Z,160.00
2023-02-11T10:46:32.262Z,136.00
2023-02-11T10:47:32.152Z,124.00
2023-02-11T10:48:32.122Z,108.00
2023-02-11T10:49:32.114Z,116.00
2023-02-11T10:50:32.095Z,116.00
2023-02-11T10:51:32.107Z,116.00
2023-02-11T10:52:32.074Z,116.00
2023-02-11T10:53:32.074Z,116.00
2023-02-11T10:54:32.056Z,112.00
2023-02-11T10:55:32.037Z,120.00
2023-02-11T10:56:32.083Z,140.00
2023-02-11T10:57:32.051Z,120.00
2023-02-11T10:58:32.026Z,140.00
2023-02-11T10:59:32.026Z,152.00
2023-02-11T11:00:31.988Z,136.00
2023-02-11T11:01:32.011Z,156.00
2023-02-11T11:02:32.190Z,156.00
2023-02-11T11:03:31.958Z,164.00
2023-02-11T11:04:32.026Z,180.00
2023-02-11T11:05:31.928Z,148.00
2023-02-11T11:06:31.925Z,136.00
2023-02-11T11:07:31.926Z,128.00
2023-02-11T11:08:31.935Z,116.00
2023-02-11T11:09:31.889Z,112.00
2023-02-11T11:10:31.881Z,96.00
2023-02-11T11:11:31.859Z,136.00
2023-02-11T11:12:31.917Z,132.00
2023-02-11T11:13:31.843Z,132.00
2023-02-11T11:14:31.838Z,112.00
2023-02-11T11:15:31.825Z,100.00
2023-02-11T11:16:31.840Z,112.00
2023-02-11T11:17:31.823Z,92.00
2023-02-11T11:18:31.848Z,88.00
2023-02-11T11:19:31.778Z,92.00
2023-02-11T11:20:31.812Z,88.00
2023-02-11T11:21:31.789Z,112.00
2023-02-11T11:22:31.749Z,112.00
2023-02-11T11:23:31.742Z,120.00
2023-02-11T11:24:31.731Z,120.00
2023-02-11T11:25:31.711Z,116.00
2023-02-11T11:26:31.725Z,136.00
2023-02-11T11:27:31.687Z,116.00
2023-02-11T11:28:31.814Z,100.00
2023-02-11T11:29:31.669Z,116.00
2023-02-11T11:30:31.705Z,116.00
2023-02-11T11:31:31.830Z,128.00
2023-02-11T11:32:31.640Z,128.00
2023-02-11T11:33:31.650Z,112.00
2023-02-11T11:34:31.621Z,132.00
2023-02-11T11:35:31.604Z,128.00
2023-02-11T11:36:31.625Z,144.00
2023-02-11T11:37:31.579Z,120.00
2023-02-11T11:38:31.596Z,148.00
2023-02-11T11:39:31.564Z,128.00
2023-02-11T11:40:31.557Z,116.00
2023-02-11T11:41:31.545Z,128.00
2023-02-11T11:42:31.550Z,128.00
2023-02-11T11:43:31.513Z,132.00
2023-02-11T11:44:31.551Z,148.00
2023-02-11T11:45:31.504Z,132.00
2023-02-11T11:46:31.565Z,132.00
2023-02-11T11:47:31.466Z,128.00
2023-02-11T11:48:31.525Z,180.00
2023-02-11T11:49:31.450Z,176.00
2023-02-11T11:50:31.479Z,228.00
2023-02-11T11:51:31.440Z,176.00
2023-02-11T11:52:31.411Z,188.00
2023-02-11T11:53:31.403Z,156.00
2023-02-11T11:54:31.384Z,132.00
2023-02-11T11:55:31.385Z,124.00
2023-02-11T11:56:31.402Z,124.00
2023-02-11T11:57:31.386Z,104.00
2023-02-11T11:58:31.352Z,120.00
2023-02-11T11:59:31.359Z,116.00
2023-02-11T12:00:31.391Z,100.00
2023-02-11T12:01:31.469Z,120.00
2023-02-11T12:02:31.311Z,144.00
2023-02-11T12:03:31.375Z,128.00
2023-02-11T12:04:31.285Z,136.00
2023-02-11T12:05:32.314Z,124.00
2023-02-11T12:06:31.273Z,144.00
2023-02-11T12:07:31.253Z,148.00
2023-02-11T12:08:31.244Z,176.00
2023-02-11T12:09:31.226Z,152.00
2023-02-11T12:10:31.247Z,208.00
2023-02-11T12:11:31.209Z,204.00
2023-02-11T12:12:31.198Z,172.00
2023-02-11T12:13:31.188Z,164.00
2023-02-11T12:14:31.208Z,220.00
2023-02-11T12:15:31.166Z,168.00
2023-02-11T12:16:31.215Z,196.00
2023-02-11T12:17:31.144Z,236.00
2023-02-11T12:18:31.131Z,208.00
2023-02-11T12:19:31.122Z,152.00
2023-02-11T12:20:31.136Z,168.00
2023-02-11T12:21:31.118Z,184.00
2023-02-11T12:22:31.091Z,156.00
2023-02-11T12:23:31.073Z,144.00
2023-02-11T12:24:31.077Z,152.00
2023-02-11T12:25:31.064Z,164.00
2023-02-11T12:26:31.120Z,172.00
2023-02-11T12:27:31.030Z,200.00
2023-02-11T12:28:31.148Z,160.00
2023-02-11T12:29:31.006Z,152.00
2023-02-11T12:30:31.060Z,172.00
2023-02-11T12:31:31.082Z,176.00
2023-02-11T12:32:30.998Z,208.00
2023-02-11T12:33:30.964Z,164.00
2023-02-11T12:34:30.954Z,192.00
2023-02-11T12:35:30.963Z,204.00
2023-02-11T12:36:30.967Z,204.00
2023-02-11T12:37:30.929Z,200.00
2023-02-11T12:38:30.912Z,204.00
2023-02-11T12:39:30.953Z,184.00
2023-02-11T12:40:30.898Z,156.00
2023-02-11T12:41:30.879Z,148.00
2023-02-11T12:42:30.876Z,152.00
2023-02-11T12:43:30.872Z,168.00
2023-02-11T12:44:30.876Z,168.00
2023-02-11T12:45:30.914Z,160.00
2023-02-11T12:46:30.832Z,160.00
2023-02-11T12:47:30.810Z,180.00
2023-02-11T12:48:30.825Z,244.00
2023-02-11T12:49:30.797Z,256.00
2023-02-11T12:50:30.809Z,240.00
2023-02-11T12:51:30.764Z,224.00
2023-02-11T12:52:30.768Z,124.00
2023-02-11T12:53:30.747Z,144.00
2023-02-11T12:54:30.744Z,208.00
2023-02-11T12:55:30.755Z,228.00
2023-02-11T12:56:30.715Z,276.00
2023-02-11T12:57:30.713Z,176.00